Saint Anthony, IN (47575)

2:22 PM EST on February 20, 2018 (GMT -0500)
Schnellville/Birdseye | | Change Station
Active Advisory: Special Statement

Elev 669 ft 38.32 °N, 86.75 °W | Updated 14 seconds ago

Clear
Clear
75.9 °F
Feels Like 77 °F
N
10.3
Wind Variable Wind from SSE
Gusts 15.0 mph

Today
High -- | Low -- °F
--% Chance of Precip.
Yesterday
High -- | Low -- °F
Precip. -- in
Pressure 30.07 in
Visibility 10.0 miles
Clouds Clear
Heat Index 77 °F
Dew Point 66 °F
Humidity 71%
Rainfall 0.00 in
Snow Depth Not available.
7:31 AM 6:31 PM
Waxing Crescent, 24% visible
METAR KHNB 201856Z AUTO 19024G29KT 10SM CLR 24/14 A3007 RMK AO2 PK WND 18029/1856 SLP181 T02440144
Pressure 30.07 in
Visibility 10.0 miles
Clouds Clear
Heat Index 77 °F
Dew Point 66 °F
Humidity 71%
Rainfall 0.00 in
Snow Depth Not available.
7:31 AM 6:31 PM
Waxing Crescent, 24% visible
METAR KHNB 201856Z AUTO 19024G29KT 10SM CLR 24/14 A3007 RMK AO2 PK WND 18029/1856 SLP181 T02440144

Get Your Daily Forecast Email!

Thanks for signing up!

Be on the lookout for a verification email in your inbox.

You'll start receiving severe weather alerts in your inbox..

×

10-Day Weather Forecast

Almanac

Astronomy

Feb. 20, 2018 Rise Set
Actual Time
Civil Twilight
Nautical Twilight
Astronomical Twilight
Moon
Length of Visible Light
Length of Day
Tomorrow will be .
, % of the Moon is Illuminated

Today's Extremes

State Highs State Lows

Community

WunderPhotos

Category 6

Welcome to Category 6. This is the collective home for Weather Underground's featured writeups by Dr. Jeff Masters (right), Bob Henson (left), Chris Burt, and other regular contributors.

Nearby

Air Quality

  Air Quality AQ Index Pollutant
Not available.

Snow Depth

Station Depth Elevation

Earthquake Activity

City Distance Mag. Time & Date
Minimum magnitude displayed is 2.5.

Coastal Water Temperatures

Place Temperature

Stations

Nearby Weather Stations

Station Location Temp. Windchill Dew Point Humidity Wind Precip. Elev Updated Type
                   

Watches & Warnings

Special Statement
Issued: 7:16 AM CST Feb. 20, 2018 – National Weather Service

... Gusty winds expected today...

Strong winds from the south-southwest are expected again today,
especially after 10 am EST. Wind gusts of 30-35 mph will be
common, with occasional gusts around 40 mph. Unsecured outdoor
items may be blown around, and some small tree branches could
come down. Motorists should use caution and be prepared for strong
Crosswinds on east-west highways, including Interstate 64 and the
western Kentucky and Bluegrass parkways. High-profile vehicles
will be impacted the most. Wind gusts will diminish after sunset.


Ebw